createdAt,value
2023-03-31T00:01:05.025Z,99262.81
2023-03-31T00:06:28.013Z,99235.69
2023-03-31T00:11:51.101Z,99248.75
2023-03-31T00:17:13.775Z,99246.94
2023-03-31T00:22:39.463Z,99204.63
2023-03-31T00:28:05.821Z,99204.03
2023-03-31T00:33:38.194Z,99245.94
2023-03-31T00:45:15.629Z,99243.78
2023-03-31T00:50:47.472Z,99240.25
2023-03-31T00:56:21.659Z,99213.00
2023-03-31T01:01:52.318Z,99253.88
2023-03-31T01:07:34.918Z,99203.91
2023-03-31T01:13:04.495Z,99255.41
2023-03-31T01:18:37.025Z,99216.38
2023-03-31T01:24:18.256Z,99237.53
2023-03-31T01:30:00.198Z,99228.66
2023-03-31T01:35:56.186Z,99258.47
2023-03-31T01:41:57.282Z,99244.38
2023-03-31T01:47:42.554Z,99262.19
2023-03-31T01:53:18.419Z,99243.25
2023-03-31T01:59:07.204Z,99265.63
2023-03-31T02:04:42.732Z,99261.09
2023-03-31T02:10:08.679Z,99265.81
2023-03-31T02:15:41.337Z,99264.44
2023-03-31T02:21:06.229Z,99261.44
2023-03-31T02:26:34.773Z,99270.19
2023-03-31T02:32:14.762Z,99260.84
2023-03-31T02:37:37.409Z,99270.75
2023-03-31T02:43:02.990Z,99280.56
2023-03-31T02:48:35.311Z,99285.88
2023-03-31T02:54:09.851Z,99293.84
2023-03-31T02:59:45.771Z,99273.34
2023-03-31T03:05:26.695Z,99246.84
2023-03-31T03:11:28.210Z,99248.34
2023-03-31T03:17:05.567Z,99284.94
2023-03-31T03:22:28.622Z,99296.44
2023-03-31T03:27:53.531Z,99276.88
2023-03-31T03:33:17.516Z,99284.16
2023-03-31T03:38:39.326Z,99264.47
2023-03-31T03:44:01.800Z,99261.06
2023-03-31T03:49:23.588Z,99260.84
2023-03-31T03:54:45.765Z,99239.59
2023-03-31T04:00:13.965Z,99246.75
2023-03-31T04:05:37.251Z,99257.47
2023-03-31T04:10:59.074Z,99242.84
2023-03-31T04:16:21.189Z,99254.38
2023-03-31T05:22:10.817Z,99238.59
2023-03-31T05:27:33.526Z,99239.19
2023-03-31T05:32:57.510Z,99224.31
2023-03-31T05:38:20.014Z,99231.81
2023-03-31T05:43:41.814Z,99235.84
2023-03-31T05:49:03.927Z,99238.59
2023-03-31T05:54:27.366Z,99231.00
2023-03-31T05:59:49.715Z,99187.31
2023-03-31T06:05:11.775Z,99216.25
2023-03-31T06:10:33.823Z,99215.19
2023-03-31T06:15:58.397Z,99198.66
2023-03-31T06:21:23.204Z,99192.47
2023-03-31T06:26:46.129Z,99236.53
2023-03-31T06:32:08.466Z,99234.38
2023-03-31T06:37:31.169Z,99240.19
2023-03-31T06:42:53.747Z,99211.38
2023-03-31T06:48:28.482Z,99179.69
2023-03-31T06:53:50.722Z,99187.56
2023-03-31T06:59:12.603Z,99181.78
2023-03-31T07:04:34.724Z,99194.13
2023-03-31T07:09:57.125Z,99182.69
2023-03-31T07:15:19.561Z,99195.78
2023-03-31T07:20:41.735Z,99190.97
2023-03-31T07:26:04.284Z,99199.53
2023-03-31T07:31:29.462Z,99198.44
2023-03-31T07:36:52.109Z,99199.00
2023-03-31T07:42:16.930Z,99194.31
2023-03-31T07:47:40.640Z,99207.88
2023-03-31T07:53:02.835Z,99200.19
2023-03-31T07:58:24.905Z,99196.44
2023-03-31T08:03:49.203Z,99182.66
2023-03-31T08:09:13.880Z,99189.38
2023-03-31T08:14:41.093Z,99174.75
2023-03-31T08:20:08.154Z,99144.34
2023-03-31T08:25:30.176Z,99147.56
2023-03-31T08:30:52.829Z,99137.44
2023-03-31T08:36:15.578Z,99166.25
2023-03-31T08:42:13.951Z,99167.09
2023-03-31T08:47:48.044Z,99119.88
2023-03-31T08:53:25.942Z,99133.50
2023-03-31T08:58:51.480Z,99117.50
2023-03-31T09:04:26.377Z,99173.78
2023-03-31T09:10:14.561Z,99163.97
2023-03-31T09:15:58.992Z,99156.75
2023-03-31T09:21:29.430Z,99155.66
2023-03-31T09:27:00.408Z,99117.81
2023-03-31T09:32:26.462Z,99098.34
2023-03-31T09:37:49.993Z,99114.38
2023-03-31T09:43:33.479Z,99102.97
2023-03-31T09:49:08.126Z,99099.19
2023-03-31T09:54:50.683Z,99089.63
2023-03-31T10:00:16.988Z,99111.47
2023-03-31T10:05:51.993Z,99103.22
2023-03-31T10:11:15.264Z,99063.00
2023-03-31T10:16:57.109Z,99040.66
2023-03-31T10:22:22.233Z,99077.41
2023-03-31T10:27:48.321Z,99068.63
2023-03-31T10:38:48.752Z,99062.50
2023-03-31T10:44:32.280Z,99050.78
2023-03-31T10:49:58.124Z,99048.63
2023-03-31T10:55:30.353Z,99026.28
2023-03-31T11:01:17.401Z,99020.97
2023-03-31T11:07:18.075Z,99026.00
2023-03-31T11:12:45.103Z,99026.56
2023-03-31T11:18:28.915Z,99022.03
2023-03-31T11:24:10.576Z,99019.66
2023-03-31T11:30:02.310Z,99016.16
2023-03-31T11:36:04.880Z,99005.78
2023-03-31T11:42:07.298Z,98995.41
2023-03-31T11:47:38.263Z,98992.22
2023-03-31T11:53:42.590Z,98977.59
2023-03-31T11:59:07.063Z,98973.06
2023-03-31T12:04:37.696Z,98971.72
2023-03-31T12:10:18.083Z,98956.53
2023-03-31T12:15:44.009Z,98947.47
2023-03-31T12:21:08.623Z,98933.13
2023-03-31T12:26:58.192Z,98937.38
2023-03-31T12:32:24.256Z,98907.06
2023-03-31T12:37:59.187Z,98916.63
2023-03-31T12:43:48.040Z,98912.34
2023-03-31T12:49:28.486Z,98907.59
2023-03-31T12:55:38.139Z,98890.03
2023-03-31T13:01:22.874Z,98905.69
2023-03-31T13:06:54.244Z,98861.03
2023-03-31T13:12:20.320Z,98894.50
2023-03-31T13:17:43.616Z,98878.81
2023-03-31T13:23:24.394Z,98870.31
2023-03-31T13:28:54.123Z,98877.22
2023-03-31T13:34:22.764Z,98878.81
2023-03-31T13:40:05.232Z,98889.19
2023-03-31T13:45:39.616Z,98884.13
2023-03-31T13:51:27.062Z,98887.88
2023-03-31T13:57:07.656Z,98869.25
2023-03-31T14:02:37.555Z,98868.16
2023-03-31T14:08:06.735Z,98844.75
2023-03-31T14:13:29.890Z,98847.44
2023-03-31T14:19:03.741Z,98834.66
2023-03-31T14:24:38.110Z,98843.69
2023-03-31T14:30:19.361Z,98837.84
2023-03-31T14:36:23.007Z,98841.28
2023-03-31T14:41:45.191Z,98808.06
2023-03-31T14:47:13.629Z,98827.97
2023-03-31T14:52:36.305Z,98818.16
2023-03-31T14:58:00.861Z,98799.53
2023-03-31T15:03:22.713Z,98810.16
2023-03-31T15:08:45.179Z,98789.69
2023-03-31T15:14:09.057Z,98795.28
2023-03-31T15:19:34.412Z,98792.59
2023-03-31T15:24:56.853Z,98762.06
2023-03-31T15:30:25.580Z,98782.00
2023-03-31T15:35:47.800Z,98761.53
2023-03-31T15:41:15.174Z,98756.75
2023-03-31T15:46:40.656Z,98784.38
2023-03-31T15:52:03.926Z,98766.03
2023-03-31T15:57:34.617Z,98749.03
2023-03-31T16:02:57.064Z,98765.75
2023-03-31T16:08:34.415Z,98766.56
2023-03-31T16:13:59.935Z,98758.59
2023-03-31T16:19:25.855Z,98743.72
2023-03-31T16:24:50.763Z,98761.75
2023-03-31T16:30:19.464Z,98742.13
2023-03-31T16:35:44.371Z,98753.53
2023-03-31T16:41:07.831Z,98743.72
2023-03-31T16:46:30.330Z,98734.63
2023-03-31T16:51:53.205Z,98736.78
2023-03-31T16:57:15.925Z,98745.03
2023-03-31T17:02:39.169Z,98730.41
2023-03-31T17:08:01.945Z,98728.81
2023-03-31T17:13:24.234Z,98734.38
2023-03-31T17:18:46.568Z,98730.94
2023-03-31T17:24:08.667Z,98711.25
2023-03-31T17:29:31.165Z,98718.44
2023-03-31T17:34:54.073Z,98700.38
2023-03-31T17:40:21.989Z,98715.75
2023-03-31T17:45:50.202Z,98704.06
2023-03-31T17:51:15.768Z,98698.50
2023-03-31T17:56:39.264Z,98702.47
2023-03-31T18:02:02.117Z,98692.09
2023-03-31T18:07:24.586Z,98699.00
2023-03-31T18:12:47.210Z,98680.13
2023-03-31T18:18:10.081Z,98670.56
2023-03-31T18:23:32.854Z,98682.00
2023-03-31T18:28:55.548Z,98677.22
2023-03-31T18:34:17.223Z,98691.00
2023-03-31T18:39:39.323Z,98683.84
2023-03-31T18:45:01.412Z,98686.22
2023-03-31T18:50:26.331Z,98681.97
2023-03-31T18:55:53.661Z,98680.63
2023-03-31T19:01:15.550Z,98669.47
2023-03-31T19:06:37.898Z,98674.78
2023-03-31T19:11:59.967Z,98673.72
2023-03-31T19:17:22.061Z,98667.59
2023-03-31T19:22:49.832Z,98673.19
2023-03-31T19:28:17.174Z,98670.00
2023-03-31T19:33:39.475Z,98672.38
2023-03-31T19:39:03.160Z,98679.81
2023-03-31T19:44:26.035Z,98675.03
2023-03-31T19:49:48.431Z,98662.56
2023-03-31T19:55:10.181Z,98678.22
2023-03-31T20:00:32.405Z,98667.88
2023-03-31T20:06:03.565Z,98667.03
2023-03-31T20:11:26.801Z,98677.69
2023-03-31T20:16:50.952Z,98683.00
2023-03-31T20:22:13.269Z,98688.59
2023-03-31T20:27:35.508Z,98687.03
2023-03-31T20:32:57.307Z,98679.63
2023-03-31T20:38:19.426Z,98695.31
2023-03-31T20:43:42.073Z,98713.38
2023-03-31T20:49:04.393Z,98708.63
2023-03-31T20:54:27.004Z,98721.16
2023-03-31T20:59:51.297Z,98719.81
2023-03-31T21:05:13.101Z,98712.09
2023-03-31T21:10:42.014Z,98708.94
2023-03-31T21:16:05.365Z,98726.75
2023-03-31T21:21:28.298Z,98717.72
2023-03-31T21:26:49.984Z,98712.94
2023-03-31T21:32:11.953Z,98726.25
2023-03-31T21:37:34.831Z,98720.66
2023-03-31T21:42:56.843Z,98716.13
2023-03-31T21:48:19.061Z,98738.22
2023-03-31T21:53:41.892Z,98713.72
2023-03-31T21:59:04.745Z,98722.50
2023-03-31T22:04:28.026Z,98718.53
2023-03-31T22:09:51.256Z,98730.75
2023-03-31T22:15:13.065Z,98733.69
2023-03-31T22:20:35.512Z,98706.81
2023-03-31T22:25:57.556Z,98732.31
2023-03-31T22:31:20.181Z,98736.84
2023-03-31T22:36:41.957Z,98728.84
2023-03-31T22:42:04.429Z,98734.16
2023-03-31T22:47:26.381Z,98737.63
2023-03-31T22:52:48.507Z,98727.00
2023-03-31T22:58:11.462Z,98731.81
2023-03-31T23:03:33.916Z,98735.25
2023-03-31T23:08:56.815Z,98728.84
2023-03-31T23:14:19.076Z,98732.59
2023-03-31T23:19:41.503Z,98730.97
2023-03-31T23:25:05.905Z,98717.16
2023-03-31T23:30:28.969Z,98737.88
2023-03-31T23:35:53.099Z,98737.88
2023-03-31T23:41:16.145Z,98749.53
2023-03-31T23:46:39.854Z,98743.16
2023-03-31T23:52:04.802Z,98743.16
2023-03-31T23:57:26.744Z,98739.97
